createdAt,value
2022-11-13T00:00:51.933Z,39.80
2022-11-13T00:03:18.767Z,39.60
2022-11-13T00:05:45.589Z,39.83
2022-11-13T00:08:12.441Z,33.80
2022-11-13T00:10:39.238Z,39.03
2022-11-13T00:13:06.025Z,40.63
2022-11-13T00:15:33.861Z,37.13
2022-11-13T00:18:02.519Z,38.80
2022-11-13T00:20:29.393Z,42.33
2022-11-13T00:22:56.265Z,33.17
2022-11-13T00:25:23.068Z,36.20
2022-11-13T00:27:49.890Z,38.33
2022-11-13T00:30:19.428Z,36.00
2022-11-13T00:32:46.393Z,35.13
2022-11-13T00:35:13.223Z,32.80
2022-11-13T00:37:40.060Z,34.03
2022-11-13T00:40:07.308Z,36.23
2022-11-13T00:42:34.131Z,35.77
2022-11-13T00:45:00.891Z,33.67
2022-11-13T00:47:27.719Z,33.53
2022-11-13T00:49:54.511Z,30.50
2022-11-13T00:52:21.265Z,31.93
2022-11-13T00:54:48.048Z,34.87
2022-11-13T00:57:14.875Z,30.30
2022-11-13T00:59:41.712Z,32.07
2022-11-13T01:02:10.115Z,32.50
2022-11-13T01:04:36.881Z,36.73
2022-11-13T01:07:03.704Z,32.67
2022-11-13T01:09:30.521Z,33.03
2022-11-13T01:11:57.285Z,35.50
2022-11-13T01:14:24.095Z,32.10
2022-11-13T01:16:50.873Z,35.47
2022-11-13T01:19:17.737Z,35.83
2022-11-13T01:21:44.543Z,32.80
2022-11-13T01:24:11.288Z,31.80
2022-11-13T01:26:38.069Z,30.43
2022-11-13T01:29:05.006Z,30.90
2022-11-13T01:31:31.796Z,34.60
2022-11-13T01:33:58.611Z,34.90
2022-11-13T01:36:27.007Z,34.77
2022-11-13T01:38:54.082Z,32.97
2022-11-13T01:41:31.613Z,31.37
2022-11-13T01:43:58.724Z,35.17
2022-11-13T01:46:36.306Z,30.37
2022-11-13T01:49:12.043Z,34.67
2022-11-13T01:51:49.937Z,34.53
2022-11-13T01:54:19.517Z,32.37
2022-11-13T01:56:46.335Z,34.53
2022-11-13T01:59:18.370Z,27.77
2022-11-13T02:01:45.266Z,27.30
2022-11-13T02:04:12.085Z,30.67
2022-11-13T02:06:49.989Z,28.07
2022-11-13T02:09:21.328Z,26.33
2022-11-13T02:11:48.116Z,29.53
2022-11-13T02:14:15.030Z,28.87
2022-11-13T02:16:42.338Z,28.20
2022-11-13T02:19:13.273Z,28.13
2022-11-13T02:22:16.948Z,32.13
2022-11-13T02:24:45.557Z,32.63
2022-11-13T02:27:33.449Z,32.27
2022-11-13T02:30:14.067Z,32.90
2022-11-13T02:32:50.369Z,31.33
2022-11-13T02:35:33.390Z,31.80
2022-11-13T02:38:02.004Z,34.10
2022-11-13T02:40:28.869Z,28.93
2022-11-13T02:42:55.747Z,26.57
2022-11-13T02:45:22.609Z,29.13
2022-11-13T02:47:49.859Z,29.23
2022-11-13T02:50:17.653Z,32.43
2022-11-13T02:52:44.526Z,30.70
2022-11-13T02:55:11.348Z,27.47
2022-11-13T02:57:38.209Z,30.07
2022-11-13T03:00:09.195Z,27.43
2022-11-13T03:02:39.405Z,30.13
2022-11-13T03:05:14.097Z,32.00
2022-11-13T03:07:41.641Z,29.40
2022-11-13T03:10:09.277Z,28.00
2022-11-13T03:12:36.124Z,30.53
2022-11-13T03:15:03.332Z,30.40
2022-11-13T03:17:33.580Z,29.27
2022-11-13T03:20:00.666Z,28.07
2022-11-13T03:22:27.720Z,23.93
2022-11-13T03:24:54.550Z,25.17
2022-11-13T03:27:21.369Z,24.30
2022-11-13T03:29:48.444Z,25.83
2022-11-13T03:32:15.323Z,27.80
2022-11-13T03:34:42.257Z,30.17
2022-11-13T03:37:09.073Z,30.93
2022-11-13T03:39:35.880Z,29.53
2022-11-13T03:42:02.634Z,27.77
2022-11-13T03:44:29.413Z,29.47
2022-11-13T03:46:56.250Z,31.97
2022-11-13T03:49:23.044Z,28.67
2022-11-13T03:51:49.846Z,26.20
2022-11-13T03:54:16.713Z,30.30
2022-11-13T03:56:43.514Z,28.60
2022-11-13T03:59:10.380Z,32.00
2022-11-13T04:01:37.164Z,27.53
2022-11-13T04:04:04.059Z,28.17
2022-11-13T04:06:30.935Z,23.77
2022-11-13T04:08:57.724Z,28.87
2022-11-13T04:11:24.489Z,28.33
2022-11-13T04:13:51.277Z,27.67
2022-11-13T04:16:18.048Z,29.93
2022-11-13T04:18:44.853Z,29.77
2022-11-13T04:21:12.651Z,29.17
2022-11-13T04:23:39.411Z,26.50
2022-11-13T04:26:06.266Z,26.17
2022-11-13T04:28:33.094Z,24.63
2022-11-13T04:30:59.882Z,32.27
2022-11-13T04:33:26.654Z,24.60
2022-11-13T04:35:53.495Z,26.50
2022-11-13T04:38:20.286Z,26.20
2022-11-13T04:40:50.363Z,24.97
2022-11-13T04:43:17.185Z,27.07
2022-11-13T04:45:43.941Z,26.13
2022-11-13T04:48:10.748Z,26.00
2022-11-13T04:50:37.537Z,24.10
2022-11-13T04:53:04.370Z,27.13
2022-11-13T04:55:31.133Z,28.20
2022-11-13T04:57:57.986Z,30.97
2022-11-13T05:00:24.942Z,27.20
2022-11-13T05:02:51.756Z,26.83
2022-11-13T05:05:18.519Z,28.03
2022-11-13T05:07:45.314Z,27.00
2022-11-13T05:10:12.341Z,30.33
2022-11-13T05:12:39.153Z,32.33
2022-11-13T05:15:06.682Z,27.67
2022-11-13T05:17:33.581Z,28.00
2022-11-13T05:20:00.369Z,25.97
2022-11-13T05:22:27.157Z,24.87
2022-11-13T05:24:53.969Z,27.70
2022-11-13T05:27:20.807Z,25.10
2022-11-13T05:29:47.574Z,25.90
2022-11-13T05:32:14.429Z,23.77
2022-11-13T05:34:42.249Z,24.97
2022-11-13T05:37:09.006Z,26.37
2022-11-13T05:39:35.843Z,25.17
2022-11-13T05:42:02.681Z,25.53
2022-11-13T05:44:29.497Z,28.77
2022-11-13T05:46:56.301Z,27.30
2022-11-13T05:49:23.065Z,30.03
2022-11-13T05:51:49.846Z,26.43
2022-11-13T05:54:16.640Z,25.13
2022-11-13T05:56:44.721Z,27.80
2022-11-13T05:59:12.559Z,24.70
2022-11-13T06:01:40.168Z,24.37
2022-11-13T06:04:07.801Z,33.57
2022-11-13T06:06:34.825Z,33.90
2022-11-13T06:09:03.264Z,37.20
2022-11-13T06:11:30.352Z,32.50
2022-11-13T06:13:57.678Z,31.03
2022-11-13T06:16:29.064Z,28.67
2022-11-13T06:19:03.220Z,34.27
2022-11-13T06:21:31.076Z,32.83
2022-11-13T06:23:59.534Z,31.90
2022-11-13T06:26:28.402Z,31.17
2022-11-13T06:28:55.295Z,35.23
2022-11-13T06:31:26.766Z,32.47
2022-11-13T06:33:53.750Z,29.60
2022-11-13T06:36:23.359Z,32.83
2022-11-13T06:38:50.355Z,32.00
2022-11-13T06:41:20.585Z,31.40
2022-11-13T06:43:47.800Z,33.53
2022-11-13T06:46:19.162Z,33.43
2022-11-13T06:48:46.121Z,28.60
2022-11-13T06:51:18.513Z,30.37
2022-11-13T06:53:45.348Z,26.33
2022-11-13T06:56:12.348Z,26.77
2022-11-13T06:58:39.200Z,28.90
2022-11-13T07:01:17.430Z,27.50
2022-11-13T07:03:44.283Z,29.50
2022-11-13T07:06:15.595Z,29.23
2022-11-13T07:08:42.786Z,30.80
2022-11-13T07:11:15.393Z,27.90
2022-11-13T07:13:42.393Z,33.20
2022-11-13T07:16:17.086Z,32.43
2022-11-13T07:18:53.764Z,31.67
2022-11-13T07:21:20.814Z,32.00
2022-11-13T07:23:48.706Z,28.63
2022-11-13T07:26:15.552Z,33.93
2022-11-13T07:28:42.376Z,37.00
2022-11-13T07:31:09.677Z,33.87
2022-11-13T07:33:38.512Z,41.37
2022-11-13T07:36:05.882Z,43.90
2022-11-13T07:38:32.643Z,39.80
2022-11-13T07:40:59.763Z,42.73
2022-11-13T07:43:26.746Z,56.37
2022-11-13T07:45:56.564Z,45.30
2022-11-13T07:48:23.373Z,53.20
2022-11-13T07:50:50.458Z,66.20
2022-11-13T07:53:17.437Z,83.00
2022-11-13T07:55:44.259Z,68.07
2022-11-13T07:58:11.145Z,43.23
2022-11-13T08:00:38.081Z,43.20
2022-11-13T08:03:11.958Z,43.67
2022-11-13T08:05:39.805Z,40.60
2022-11-13T08:08:06.722Z,39.07
2022-11-13T08:10:33.641Z,31.70
2022-11-13T08:13:08.757Z,60.37
2022-11-13T08:15:35.548Z,33.63
2022-11-13T08:18:03.471Z,36.47
2022-11-13T08:20:30.620Z,26.83
2022-11-13T08:22:58.377Z,77.50
2022-11-13T08:25:27.940Z,36.00
2022-11-13T08:27:55.401Z,40.33
2022-11-13T08:30:22.545Z,44.37
2022-11-13T08:32:49.730Z,48.97
2022-11-13T08:35:19.487Z,51.73
2022-11-13T08:37:47.386Z,33.43
2022-11-13T08:40:14.411Z,71.50
2022-11-13T08:42:41.196Z,72.70
2022-11-13T08:45:08.526Z,62.73
2022-11-13T08:47:35.655Z,63.30
2022-11-13T08:50:02.525Z,44.67
2022-11-13T08:52:29.325Z,64.07
2022-11-13T08:54:56.198Z,53.60
2022-11-13T08:57:24.023Z,54.37
2022-11-13T08:59:50.873Z,54.90
2022-11-13T09:02:17.704Z,62.77
2022-11-13T09:04:44.495Z,47.73
2022-11-13T09:07:11.727Z,63.00
2022-11-13T09:09:38.633Z,70.70
2022-11-13T09:12:05.648Z,49.60
2022-11-13T09:14:32.481Z,64.53
2022-11-13T09:16:59.323Z,51.07
2022-11-13T09:19:26.329Z,52.27
2022-11-13T09:21:53.292Z,51.93
2022-11-13T09:24:20.162Z,46.50
2022-11-13T09:26:46.968Z,47.77
2022-11-13T09:29:13.785Z,67.90
2022-11-13T09:31:41.380Z,52.60
2022-11-13T09:34:08.627Z,58.67
2022-11-13T09:36:35.705Z,52.73
2022-11-13T09:39:03.085Z,64.17
2022-11-13T09:41:31.866Z,65.73
2022-11-13T09:44:09.908Z,55.17
2022-11-13T09:46:42.473Z,59.30
2022-11-13T09:49:27.560Z,56.40
2022-11-13T09:51:55.778Z,52.03
2022-11-13T09:54:22.715Z,44.43
2022-11-13T09:57:06.500Z,50.80
2022-11-13T09:59:42.568Z,48.83
2022-11-13T10:02:24.624Z,47.17
2022-11-13T10:05:11.076Z,42.33
2022-11-13T10:07:50.426Z,44.53
2022-11-13T10:10:55.947Z,42.83
2022-11-13T10:13:47.427Z,69.93
2022-11-13T10:16:35.944Z,88.70
2022-11-13T10:19:16.771Z,107.30
2022-11-13T10:22:26.507Z,121.50
2022-11-13T10:24:50.393Z,123.43
2022-11-13T10:27:17.173Z,134.20
2022-11-13T10:29:48.799Z,134.70
2022-11-13T10:32:29.473Z,151.83
2022-11-13T10:35:05.488Z,125.93
2022-11-13T10:38:08.950Z,141.60
2022-11-13T10:40:37.970Z,148.43
2022-11-13T10:43:25.607Z,141.33
2022-11-13T10:45:57.071Z,147.27
2022-11-13T10:48:28.149Z,148.90
2022-11-13T10:50:56.990Z,141.30
2022-11-13T10:53:23.805Z,152.37
2022-11-13T10:55:56.649Z,159.47
2022-11-13T10:58:23.560Z,166.07
2022-11-13T11:00:50.587Z,170.97
2022-11-13T11:03:22.251Z,170.70
2022-11-13T11:05:57.882Z,171.87
2022-11-13T11:08:34.502Z,179.33
2022-11-13T11:11:34.039Z,181.13
2022-11-13T11:14:25.573Z,188.20
2022-11-13T11:16:53.070Z,181.43
2022-11-13T11:19:21.885Z,180.10
2022-11-13T11:21:49.985Z,179.07
2022-11-13T11:24:18.339Z,200.53
2022-11-13T11:26:49.962Z,238.23
2022-11-13T11:29:36.681Z,206.97
2022-11-13T11:32:25.408Z,178.93
2022-11-13T11:35:14.086Z,197.63
2022-11-13T11:37:50.480Z,222.57
2022-11-13T11:40:46.418Z,233.43
2022-11-13T11:43:29.727Z,249.47
2022-11-13T11:45:56.785Z,253.90
2022-11-13T11:48:27.999Z,287.40
2022-11-13T11:51:21.058Z,268.70
2022-11-13T11:53:59.680Z,243.20
2022-11-13T11:56:44.517Z,260.57
2022-11-13T11:59:17.190Z,263.90
2022-11-13T12:02:06.922Z,244.70
2022-11-13T12:04:47.061Z,193.40
2022-11-13T12:07:14.068Z,227.17
2022-11-13T12:09:58.311Z,239.00
2022-11-13T12:12:44.722Z,221.17
2022-11-13T12:15:29.263Z,226.73
2022-11-13T12:18:05.460Z,211.52
2022-11-13T12:21:01.636Z,218.50
2022-11-13T12:23:42.767Z,192.80
2022-11-13T12:26:29.198Z,172.80
2022-11-13T12:29:02.102Z,143.88
2022-11-13T12:31:39.402Z,125.38
2022-11-13T12:34:30.527Z,121.88
2022-11-13T12:36:57.280Z,111.28
2022-11-13T12:39:30.124Z,97.82
2022-11-13T12:42:11.060Z,96.13
2022-11-13T12:45:07.418Z,75.43
2022-11-13T12:47:35.717Z,60.60
2022-11-13T12:50:19.766Z,45.90
2022-11-13T12:52:57.337Z,48.45
2022-11-13T12:55:31.442Z,49.42
2022-11-13T12:58:31.761Z,44.13
2022-11-13T13:01:01.499Z,37.90
2022-11-13T13:04:02.105Z,37.25
2022-11-13T13:06:35.085Z,35.67
2022-11-13T13:09:16.881Z,34.72
2022-11-13T13:11:49.659Z,33.45
2022-11-13T13:14:36.037Z,35.85
2022-11-13T13:17:15.912Z,36.47
2022-11-13T13:19:42.754Z,33.47
2022-11-13T13:22:11.025Z,35.35
2022-11-13T13:24:38.554Z,36.50
2022-11-13T13:27:29.589Z,31.70
2022-11-13T13:29:57.517Z,29.05
2022-11-13T13:32:58.176Z,29.35
2022-11-13T13:35:30.038Z,27.38
2022-11-13T13:38:05.815Z,25.58
2022-11-13T13:40:41.157Z,26.17
2022-11-13T13:43:29.192Z,27.40
2022-11-13T13:46:15.746Z,26.35
2022-11-13T13:48:43.840Z,26.40
2022-11-13T13:51:27.616Z,26.10
2022-11-13T13:53:59.409Z,27.08
2022-11-13T13:56:26.198Z,28.35
2022-11-13T13:58:53.109Z,30.05
2022-11-13T14:01:33.580Z,31.77
2022-11-13T14:04:20.619Z,28.52
2022-11-13T14:06:50.917Z,29.90
2022-11-13T14:09:25.709Z,30.90
2022-11-13T14:12:09.064Z,28.48
2022-11-13T14:14:39.019Z,30.75
2022-11-13T14:17:05.937Z,36.30
2022-11-13T14:19:32.701Z,34.28
2022-11-13T14:22:00.833Z,34.90
2022-11-13T14:24:51.225Z,34.08
2022-11-13T14:27:23.853Z,34.05
2022-11-13T14:29:58.686Z,33.63
2022-11-13T14:32:29.681Z,33.72
2022-11-13T14:35:02.120Z,32.80
2022-11-13T14:37:38.559Z,31.10
2022-11-13T14:40:24.918Z,32.05
2022-11-13T14:42:59.750Z,32.83
2022-11-13T14:45:28.255Z,31.52
2022-11-13T14:47:58.015Z,30.92
2022-11-13T14:50:33.573Z,31.02
2022-11-13T14:53:04.538Z,32.67
2022-11-13T14:55:51.746Z,31.90
2022-11-13T14:58:34.727Z,36.40
2022-11-13T15:01:22.429Z,35.15
2022-11-13T15:03:50.070Z,33.08
2022-11-13T15:06:21.549Z,32.22
2022-11-13T15:08:48.943Z,33.40
2022-11-13T15:11:17.290Z,32.28
2022-11-13T15:13:44.222Z,34.45
2022-11-13T15:16:25.013Z,32.25
2022-11-13T15:19:01.133Z,31.67
2022-11-13T15:21:28.219Z,35.93
2022-11-13T15:23:56.414Z,32.08
2022-11-13T15:26:25.604Z,33.75
2022-11-13T15:28:52.490Z,33.00
2022-11-13T15:31:29.421Z,33.33
2022-11-13T15:33:56.316Z,33.13
2022-11-13T15:36:23.246Z,32.70
2022-11-13T15:38:50.011Z,32.93
2022-11-13T15:41:19.654Z,33.07
2022-11-13T15:43:50.815Z,32.23
2022-11-13T15:46:20.299Z,32.47
2022-11-13T15:48:47.593Z,32.63
2022-11-13T15:51:35.773Z,32.27
2022-11-13T15:54:22.211Z,30.97
2022-11-13T15:56:49.067Z,33.17
2022-11-13T15:59:16.660Z,31.73
2022-11-13T16:01:43.715Z,34.13
2022-11-13T16:04:13.088Z,33.73
2022-11-13T16:06:39.945Z,31.63
2022-11-13T16:09:06.805Z,33.00
2022-11-13T16:11:34.267Z,35.30
2022-11-13T16:14:01.090Z,33.63
2022-11-13T16:16:36.075Z,34.33
2022-11-13T16:19:04.109Z,33.17
2022-11-13T16:21:30.998Z,34.27
2022-11-13T16:23:57.846Z,33.67
2022-11-13T16:26:25.638Z,33.93
2022-11-13T16:29:13.734Z,35.13
2022-11-13T16:31:41.637Z,33.93
2022-11-13T16:34:08.493Z,29.87
2022-11-13T16:36:35.436Z,30.97
2022-11-13T16:39:03.816Z,30.53
2022-11-13T16:41:31.720Z,31.37
2022-11-13T16:43:58.606Z,30.77
2022-11-13T16:46:36.066Z,29.97
2022-11-13T16:49:02.842Z,33.03
2022-11-13T16:51:29.626Z,33.27
2022-11-13T16:53:56.420Z,33.70
2022-11-13T16:56:29.169Z,31.27
2022-11-13T16:58:56.615Z,32.63
2022-11-13T17:01:23.479Z,32.00
2022-11-13T17:03:50.448Z,32.70
2022-11-13T17:06:27.781Z,34.60
2022-11-13T17:08:56.317Z,42.17
2022-11-13T17:11:24.042Z,48.43
2022-11-13T17:13:54.874Z,53.00
2022-11-13T17:16:21.855Z,55.13
2022-11-13T17:18:49.709Z,56.57
2022-11-13T17:21:18.282Z,57.93
2022-11-13T17:23:45.178Z,41.67
2022-11-13T17:26:12.076Z,26.50
2022-11-13T17:28:38.979Z,25.97
2022-11-13T17:31:08.325Z,24.40
2022-11-13T17:33:35.424Z,29.83
2022-11-13T17:36:02.599Z,26.73
2022-11-13T17:38:29.588Z,29.17
2022-11-13T17:40:56.374Z,30.90
2022-11-13T17:43:23.473Z,24.87
2022-11-13T17:45:50.936Z,28.30
2022-11-13T17:48:18.594Z,26.60
2022-11-13T17:50:45.516Z,26.03
2022-11-13T17:53:12.333Z,30.03
2022-11-13T17:55:39.095Z,27.13
2022-11-13T17:58:05.858Z,28.93
2022-11-13T18:00:32.739Z,24.77
2022-11-13T18:02:59.642Z,32.43
2022-11-13T18:05:26.454Z,33.93
2022-11-13T18:07:53.295Z,29.17
2022-11-13T18:10:20.140Z,30.97
2022-11-13T18:12:47.340Z,32.70
2022-11-13T18:15:14.622Z,34.33
2022-11-13T18:17:41.422Z,27.13
2022-11-13T18:20:08.504Z,27.73
2022-11-13T18:22:35.361Z,29.87
2022-11-13T18:25:03.348Z,27.00
2022-11-13T18:27:30.204Z,34.10
2022-11-13T18:29:56.989Z,31.30
2022-11-13T18:32:23.809Z,33.57
2022-11-13T18:34:50.585Z,35.00
2022-11-13T18:37:17.381Z,30.87
2022-11-13T18:39:44.173Z,28.13
2022-11-13T18:42:10.942Z,28.43
2022-11-13T18:44:37.831Z,30.40
2022-11-13T18:47:04.715Z,29.40
2022-11-13T18:49:31.641Z,30.07
2022-11-13T18:51:58.393Z,32.63
2022-11-13T18:54:25.220Z,27.30
2022-11-13T18:56:51.971Z,30.57
2022-11-13T18:59:18.810Z,31.07
2022-11-13T19:01:45.852Z,29.53
2022-11-13T19:04:22.977Z,26.23
2022-11-13T19:06:50.536Z,31.63
2022-11-13T19:09:17.634Z,30.17
2022-11-13T19:11:44.728Z,32.33
2022-11-13T19:14:15.263Z,30.33
2022-11-13T19:16:42.041Z,28.80
2022-11-13T19:19:19.040Z,28.83
2022-11-13T19:21:46.100Z,29.03
2022-11-13T19:24:14.613Z,25.63
2022-11-13T19:26:42.213Z,27.67
2022-11-13T19:29:09.150Z,27.43
2022-11-13T19:31:35.941Z,29.13
2022-11-13T19:34:04.289Z,26.73
2022-11-13T19:36:31.726Z,25.37
2022-11-13T19:38:58.591Z,24.63
2022-11-13T19:41:26.022Z,27.83
2022-11-13T19:43:52.989Z,26.00
2022-11-13T19:46:20.005Z,27.50
2022-11-13T19:48:48.041Z,29.20
2022-11-13T19:51:16.840Z,32.93
2022-11-13T19:53:46.328Z,31.63
2022-11-13T19:56:20.846Z,33.77
2022-11-13T19:58:49.377Z,31.67
2022-11-13T20:01:20.780Z,29.73
2022-11-13T20:03:47.786Z,32.40
2022-11-13T20:06:15.764Z,33.87
2022-11-13T20:08:42.674Z,29.87
2022-11-13T20:11:10.841Z,29.87
2022-11-13T20:13:38.501Z,28.70
2022-11-13T20:16:06.602Z,29.70
2022-11-13T20:18:33.493Z,29.03
2022-11-13T20:21:00.534Z,31.40
2022-11-13T20:23:27.300Z,26.93
2022-11-13T20:25:59.336Z,28.07
2022-11-13T20:28:27.740Z,28.20
2022-11-13T20:31:16.466Z,28.10
2022-11-13T20:33:43.708Z,24.07
2022-11-13T20:36:10.553Z,27.50
2022-11-13T20:38:37.766Z,26.37
2022-11-13T20:41:05.684Z,27.40
2022-11-13T20:43:32.534Z,27.70
2022-11-13T20:46:06.081Z,32.53
2022-11-13T20:48:34.295Z,27.23
2022-11-13T20:51:10.926Z,24.73
2022-11-13T20:53:37.854Z,30.20
2022-11-13T20:56:05.850Z,29.80
2022-11-13T20:58:32.901Z,26.30
2022-11-13T21:01:06.550Z,25.77
2022-11-13T21:03:38.496Z,22.77
2022-11-13T21:06:07.143Z,29.50
2022-11-13T21:08:33.953Z,27.10
2022-11-13T21:11:01.432Z,23.20
2022-11-13T21:13:28.381Z,29.93
2022-11-13T21:15:55.178Z,29.00
2022-11-13T21:18:22.001Z,24.20
2022-11-13T21:20:48.889Z,26.17
2022-11-13T21:23:15.665Z,27.67
2022-11-13T21:25:42.476Z,29.73
2022-11-13T21:28:09.283Z,26.10
2022-11-13T21:30:36.134Z,27.23
2022-11-13T21:33:02.949Z,27.43
2022-11-13T21:35:30.210Z,30.87
2022-11-13T21:37:57.107Z,29.47
2022-11-13T21:40:23.887Z,27.70
2022-11-13T21:42:50.751Z,26.20
2022-11-13T21:45:17.646Z,23.77
2022-11-13T21:47:44.464Z,25.53
2022-11-13T21:50:11.305Z,24.80
2022-11-13T21:52:38.140Z,31.83
2022-11-13T21:55:05.268Z,29.53
2022-11-13T21:57:32.061Z,24.93
2022-11-13T21:59:58.871Z,27.10
2022-11-13T22:02:25.807Z,24.70
2022-11-13T22:04:52.733Z,27.47
2022-11-13T22:07:19.602Z,24.90
2022-11-13T22:09:46.420Z,23.93
2022-11-13T22:12:13.315Z,26.63
2022-11-13T22:14:40.179Z,24.70
2022-11-13T22:17:06.948Z,27.40
2022-11-13T22:19:36.401Z,24.63
2022-11-13T22:22:03.388Z,26.20
2022-11-13T22:24:30.826Z,25.43
2022-11-13T22:26:57.729Z,23.07
2022-11-13T22:29:24.545Z,22.77
2022-11-13T22:31:51.326Z,22.97
2022-11-13T22:34:18.337Z,23.60
2022-11-13T22:36:45.151Z,23.20
2022-11-13T22:39:12.245Z,22.60
2022-11-13T22:41:39.025Z,23.87
2022-11-13T22:44:11.677Z,24.50
2022-11-13T22:46:38.572Z,23.90
2022-11-13T22:49:05.876Z,23.77
2022-11-13T22:51:35.190Z,26.77
2022-11-13T22:54:03.799Z,24.33
2022-11-13T22:56:31.663Z,24.43
2022-11-13T22:59:00.179Z,24.67
2022-11-13T23:01:28.919Z,22.17
2022-11-13T23:03:56.631Z,24.10
2022-11-13T23:06:25.607Z,23.63
2022-11-13T23:08:52.595Z,24.97
2022-11-13T23:11:21.219Z,25.90
2022-11-13T23:13:53.308Z,24.77
2022-11-13T23:16:20.440Z,26.10
2022-11-13T23:18:47.427Z,23.53
2022-11-13T23:21:14.623Z,24.27
2022-11-13T23:23:41.460Z,22.90
2022-11-13T23:26:08.669Z,21.70
2022-11-13T23:28:35.937Z,23.40
2022-11-13T23:31:02.801Z,26.70
2022-11-13T23:33:29.642Z,24.50
2022-11-13T23:35:56.533Z,28.27
2022-11-13T23:38:23.308Z,24.93
2022-11-13T23:40:59.589Z,23.93
2022-11-13T23:43:41.633Z,24.80
2022-11-13T23:46:13.678Z,25.07
2022-11-13T23:48:40.521Z,25.23
2022-11-13T23:51:07.452Z,23.97
2022-11-13T23:53:34.394Z,25.90
2022-11-13T23:56:01.467Z,27.47
2022-11-13T23:58:28.642Z,25.77
